createdAt,value
2018-07-16T08:49:28.194Z,993.81
2018-07-16T09:32:08.146Z,993.72
2018-07-16T09:34:18.314Z,993.77
2018-07-16T09:49:22.907Z,993.70
2018-07-16T10:08:26.447Z,993.62
2018-07-16T10:35:41.438Z,993.66
2018-07-16T11:36:30.190Z,993.40
2018-07-16T11:55:23.438Z,993.17
2018-07-16T12:01:30.514Z,993.13
2018-07-16T12:37:09.077Z,992.84
2018-07-16T13:56:45.439Z,992.23
2018-07-16T15:17:29.195Z,991.99
2018-07-16T15:32:28.074Z,991.94
2018-07-16T15:47:28.152Z,991.77
2018-07-16T16:02:28.068Z,991.73
2018-07-16T16:17:28.793Z,991.70
2018-07-16T16:32:28.622Z,991.71
2018-07-16T16:47:28.636Z,991.67
2018-07-16T17:02:28.497Z,991.75
2018-07-16T17:17:28.130Z,991.69
2018-07-16T17:32:28.127Z,991.81
2018-07-16T17:47:28.155Z,991.84
2018-07-16T18:02:28.163Z,991.99
2018-07-16T18:17:28.143Z,991.98
2018-07-16T18:32:28.189Z,992.15
2018-07-16T18:47:28.730Z,992.37
2018-07-16T19:02:28.161Z,992.51
2018-07-16T19:17:28.191Z,992.49
2018-07-16T19:32:28.286Z,992.65
2018-07-16T19:47:28.269Z,992.83
2018-07-16T20:02:28.182Z,992.92
2018-07-16T20:17:28.055Z,992.96
2018-07-16T20:32:28.517Z,993.02
2018-07-16T20:47:28.721Z,993.18
2018-07-16T21:02:28.445Z,993.44
2018-07-16T21:17:28.140Z,993.61
2018-07-16T21:32:28.340Z,993.63
2018-07-16T21:47:29.052Z,993.73
2018-07-16T22:02:28.156Z,993.70
2018-07-16T22:17:28.167Z,993.80
2018-07-16T22:32:28.192Z,993.87
2018-07-16T22:47:29.220Z,993.93
2018-07-16T23:02:28.659Z,993.86
2018-07-16T23:17:28.209Z,993.83
2018-07-16T23:32:28.112Z,993.78
2018-07-16T23:47:28.202Z,993.90
